Time;durP1;ratioP1;P1;durP2;ratioP2;P2;SDS_P1;SDS_P2;PMS_P1;PMS_P2;Temp;Humidity;BMP_temperature;BMP_pressure;BME280_temperature;BME280_humidity;BME280_pressure;Samples;Min_cycle;Max_cycle;Signal;HPM_P1;HPM_P2
2023/06/18 00:00:50;;;;;;;46.70;41.05;;;15.10;99.90;;;;;;4965427;28;20782;-73
2023/06/18 00:03:16;;;;;;;49.37;41.07;;;15.00;99.90;;;;;;4964688;28;20439;-73
2023/06/18 00:05:42;;;;;;;47.63;41.22;;;14.90;99.90;;;;;;4963484;28;20436;-74
2023/06/18 00:08:08;;;;;;;47.63;42.38;;;14.80;99.90;;;;;;4965018;28;20432;-74
2023/06/18 00:10:33;;;;;;;48.40;43.10;;;14.90;99.90;;;;;;4963669;28;20432;-74
2023/06/18 00:12:59;;;;;;;49.50;42.30;;;14.90;99.90;;;;;;4964379;28;21087;-74
2023/06/18 00:15:25;;;;;;;51.73;43.13;;;14.90;99.90;;;;;;4961916;28;20782;-74
2023/06/18 00:17:51;;;;;;;49.05;42.67;;;14.90;99.90;;;;;;4965312;28;20436;-75
2023/06/18 00:20:16;;;;;;;50.45;42.42;;;14.80;99.90;;;;;;4965517;28;20412;-78
2023/06/18 00:22:44;;;;;;;49.35;42.50;;;14.80;99.90;;;;;;4966008;28;20421;-76
2023/06/18 00:25:09;;;;;;;53.83;43.45;;;14.80;99.90;;;;;;4964067;28;20429;-74
2023/06/18 00:27:35;;;;;;;50.80;43.60;;;14.90;99.90;;;;;;4963513;28;20444;-75
2023/06/18 00:30:03;;;;;;;54.10;43.77;;;14.70;99.90;;;;;;4963331;28;20416;-73
2023/06/18 00:32:30;;;;;;;55.92;44.28;;;14.70;99.90;;;;;;4964635;28;20436;-74
2023/06/18 00:34:56;;;;;;;51.58;42.88;;;14.80;99.90;;;;;;4962825;28;20432;-74
2023/06/18 00:37:25;;;;;;;50.73;44.67;;;14.70;99.90;;;;;;4965099;28;20521;-74
2023/06/18 00:39:51;;;;;;;49.90;41.47;;;14.70;99.90;;;;;;4966012;28;20509;-74
2023/06/18 00:42:17;;;;;;;48.78;41.72;;;14.70;99.90;;;;;;4962235;28;20950;-75
2023/06/18 00:44:42;;;;;;;52.23;43.57;;;14.60;99.90;;;;;;4946814;28;20418;-74
2023/06/18 00:47:12;;;;;;;52.30;44.00;;;14.60;99.90;;;;;;4947611;28;20448;-73
2023/06/18 00:49:40;;;;;;;51.40;43.25;;;14.60;99.90;;;;;;4965297;28;20499;-74
2023/06/18 00:52:08;;;;;;;49.08;42.47;;;14.60;99.90;;;;;;4964406;28;20424;-76
2023/06/18 00:54:35;;;;;;;52.08;43.28;;;14.80;99.90;;;;;;4964119;28;20427;-76
2023/06/18 00:57:03;;;;;;;51.90;43.80;;;14.70;99.90;;;;;;4964778;28;20524;-76
2023/06/18 00:59:29;;;;;;;48.97;42.72;;;14.80;99.90;;;;;;4964354;28;20431;-76
2023/06/18 01:01:56;;;;;;;52.00;42.33;;;14.70;99.90;;;;;;4963581;28;21061;-74
2023/06/18 01:04:25;;;;;;;52.60;42.15;;;14.60;99.90;;;;;;4963731;28;20495;-74
2023/06/18 01:06:53;;;;;;;49.03;41.70;;;14.60;99.90;;;;;;4963420;28;20460;-74
2023/06/18 01:09:24;;;;;;;47.25;40.00;;;14.50;99.90;;;;;;4956738;28;20443;-75
2023/06/18 01:11:53;;;;;;;47.42;42.22;;;14.40;99.90;;;;;;4963481;28;20802;-75
2023/06/18 01:14:25;;;;;;;52.90;42.45;;;14.40;99.90;;;;;;4963108;28;20428;-75
2023/06/18 01:17:01;;;;;;;51.60;43.03;;;14.60;99.90;;;;;;4963605;28;20505;-74
2023/06/18 01:19:33;;;;;;;50.90;41.50;;;14.70;99.90;;;;;;4962244;28;20442;-73
2023/06/18 01:22:06;;;;;;;47.67;42.30;;;14.80;99.90;;;;;;4959151;28;20490;-75
2023/06/18 01:24:38;;;;;;;48.25;41.25;;;14.70;99.90;;;;;;4965846;28;20493;-74
2023/06/18 01:27:05;;;;;;;49.45;40.95;;;14.70;99.90;;;;;;4961318;28;20981;-74
2023/06/18 01:29:31;;;;;;;46.85;39.90;;;14.50;99.90;;;;;;4963914;28;20428;-74
2023/06/18 01:31:57;;;;;;;47.30;40.00;;;14.50;99.90;;;;;;4962904;28;20431;-73
2023/06/18 01:34:24;;;;;;;43.50;38.80;;;14.40;99.90;;;;;;4962557;28;20435;-74
2023/06/18 01:37:05;;;;;;;48.35;39.85;;;14.40;99.90;;;;;;4962254;28;20482;-76
2023/06/18 01:39:52;;;;;;;46.30;40.72;;;14.30;99.90;;;;;;4964031;28;20445;-75
2023/06/18 01:42:22;;;;;;;48.47;41.78;;;14.30;99.90;;;;;;4951651;28;20442;-75
2023/06/18 01:44:57;;;;;;;48.42;41.35;;;14.30;99.90;;;;;;4960571;28;20978;-75
2023/06/18 01:47:26;;;;;;;49.83;40.47;;;14.20;99.90;;;;;;4962278;28;20443;-74
2023/06/18 01:49:55;;;;;;;48.85;40.83;;;14.10;99.90;;;;;;4963696;28;20420;-73
2023/06/18 01:52:23;;;;;;;49.83;41.63;;;14.20;99.90;;;;;;4963208;28;20432;-75
2023/06/18 01:54:51;;;;;;;47.22;39.22;;;14.10;99.90;;;;;;4963212;28;20424;-74
2023/06/18 01:57:17;;;;;;;45.83;38.83;;;14.20;99.90;;;;;;4963645;28;20440;-77
2023/06/18 01:59:45;;;;;;;49.63;41.30;;;14.10;99.90;;;;;;4963563;28;20474;-74
2023/06/18 02:02:15;;;;;;;46.63;40.83;;;14.30;99.90;;;;;;4961671;28;21036;-74
2023/06/18 02:04:43;;;;;;;48.75;39.58;;;14.40;99.90;;;;;;4962545;28;20918;-75
2023/06/18 02:07:13;;;;;;;47.73;39.63;;;14.40;99.90;;;;;;4962723;28;21165;-74
2023/06/18 02:09:40;;;;;;;49.88;40.95;;;14.30;99.90;;;;;;4964280;28;21014;-73
2023/06/18 02:12:06;;;;;;;48.33;38.97;;;14.50;99.90;;;;;;4962058;28;20507;-74
2023/06/18 02:14:32;;;;;;;46.93;38.10;;;14.40;99.90;;;;;;4962324;28;20415;-75
2023/06/18 02:16:59;;;;;;;43.33;37.93;;;14.20;99.90;;;;;;4955796;28;20930;-73
2023/06/18 02:19:25;;;;;;;41.63;37.07;;;14.30;99.90;;;;;;4956881;28;20761;-75
2023/06/18 02:21:51;;;;;;;45.40;38.78;;;14.30;99.90;;;;;;4960864;28;20822;-73
2023/06/18 02:24:17;;;;;;;41.33;36.75;;;14.30;99.90;;;;;;4963355;28;20448;-75
2023/06/18 02:26:42;;;;;;;42.15;37.35;;;14.30;99.90;;;;;;4964817;28;20822;-74
2023/06/18 02:29:08;;;;;;;44.10;38.22;;;14.30;99.90;;;;;;4962327;28;20489;-77
2023/06/18 02:31:34;;;;;;;39.77;35.40;;;14.40;99.90;;;;;;4962067;28;20911;-73
2023/06/18 02:33:59;;;;;;;45.47;38.40;;;14.40;99.90;;;;;;4953349;28;20442;-73
2023/06/18 02:36:27;;;;;;;43.90;38.57;;;14.40;99.90;;;;;;4947088;28;20480;-75
2023/06/18 02:38:52;;;;;;;42.93;36.70;;;14.30;99.90;;;;;;4957549;28;20501;-74
2023/06/18 02:41:19;;;;;;;37.17;33.17;;;14.10;99.90;;;;;;4947795;28;20511;-75
2023/06/18 02:43:49;;;;;;;33.25;29.83;;;13.90;99.90;;;;;;4956568;28;21024;-74
2023/06/18 02:46:16;;;;;;;33.88;30.17;;;13.80;99.90;;;;;;4966399;28;20424;-73
2023/06/18 02:48:42;;;;;;;34.05;29.73;;;13.80;99.90;;;;;;4966115;28;20424;-75
2023/06/18 02:51:07;;;;;;;32.15;28.65;;;13.60;99.90;;;;;;4964680;28;20432;-74
2023/06/18 02:53:33;;;;;;;31.77;28.45;;;13.60;99.90;;;;;;4989178;28;20428;-74
2023/06/18 02:55:59;;;;;;;36.63;27.63;;;13.50;99.90;;;;;;4966422;28;20410;-74
2023/06/18 02:58:30;;;;;;;52.83;29.25;;;13.30;99.90;;;;;;4965038;28;20523;-74
2023/06/18 03:01:00;;;;;;;42.60;27.45;;;13.20;99.90;;;;;;4964716;28;20035;-73
2023/06/18 03:03:26;;;;;;;107.22;33.70;;;13.10;99.90;;;;;;4966485;28;20068;-74
2023/06/18 03:05:52;;;;;;;97.30;32.55;;;13.10;99.90;;;;;;4967264;28;20382;-73
2023/06/18 03:08:18;;;;;;;57.00;29.38;;;13.00;99.90;;;;;;4966213;28;20039;-74
2023/06/18 03:10:44;;;;;;;101.18;32.65;;;13.10;99.90;;;;;;4967545;28;20501;-73
2023/06/18 03:13:10;;;;;;;129.30;33.33;;;13.00;99.90;;;;;;4964182;28;20078;-74
2023/06/18 03:15:36;;;;;;;101.78;30.23;;;13.00;99.90;;;;;;4967849;28;20147;-75
2023/06/18 03:18:02;;;;;;;112.10;29.67;;;12.90;99.90;;;;;;4966068;28;20051;-75
2023/06/18 03:20:28;;;;;;;69.13;28.83;;;12.80;99.90;;;;;;4967091;28;20038;-73
2023/06/18 03:22:54;;;;;;;159.18;34.55;;;12.80;99.90;;;;;;4966629;28;20055;-74
2023/06/18 03:25:20;;;;;;;54.95;29.85;;;12.90;99.90;;;;;;4953277;28;20044;-74
2023/06/18 03:27:47;;;;;;;80.43;31.23;;;12.90;99.90;;;;;;4947988;28;20490;-75
2023/06/18 03:30:13;;;;;;;53.63;34.67;;;13.00;99.90;;;;;;4963268;28;20420;-74
2023/06/18 03:32:39;;;;;;;79.67;37.33;;;13.20;99.90;;;;;;4949297;28;20449;-74
2023/06/18 03:35:05;;;;;;;55.50;32.63;;;13.20;99.90;;;;;;4962743;28;20939;-74
2023/06/18 03:37:31;;;;;;;57.15;35.10;;;13.40;99.90;;;;;;4966208;28;20505;-75
2023/06/18 03:39:57;;;;;;;108.30;35.15;;;13.40;99.90;;;;;;4964892;28;20917;-75
2023/06/18 03:42:24;;;;;;;111.32;33.28;;;13.50;99.90;;;;;;4964320;28;20442;-74
2023/06/18 03:44:49;;;;;;;120.35;31.95;;;13.30;99.90;;;;;;4962470;28;20918;-74
2023/06/18 03:47:15;;;;;;;103.60;31.67;;;13.20;99.90;;;;;;4965477;28;20444;-73
2023/06/18 03:49:41;;;;;;;83.10;31.90;;;13.10;99.90;;;;;;4965487;28;20499;-73
2023/06/18 03:52:07;;;;;;;74.65;31.48;;;13.20;99.90;;;;;;4964937;28;20507;-73
2023/06/18 03:54:33;;;;;;;64.18;31.95;;;13.30;99.90;;;;;;4965236;28;20489;-74
2023/06/18 03:56:58;;;;;;;55.15;32.08;;;13.40;99.90;;;;;;4966455;28;20942;-73
2023/06/18 03:59:24;;;;;;;60.03;34.08;;;13.40;99.90;;;;;;4959270;28;20938;-76
2023/06/18 04:01:50;;;;;;;61.90;33.80;;;13.30;99.90;;;;;;4964523;28;20956;-74
2023/06/18 04:04:16;;;;;;;48.78;33.42;;;13.50;99.90;;;;;;4960613;28;20464;-73
2023/06/18 04:06:42;;;;;;;42.28;33.65;;;13.60;99.90;;;;;;4950102;28;20890;-75
2023/06/18 04:09:08;;;;;;;43.60;34.78;;;13.60;99.90;;;;;;4963340;28;20521;-74
2023/06/18 04:11:36;;;;;;;44.95;36.00;;;13.80;99.90;;;;;;4962958;28;20439;-73
2023/06/18 04:14:02;;;;;;;40.35;34.80;;;13.80;99.90;;;;;;4963568;28;20511;-73
2023/06/18 04:16:28;;;;;;;38.53;34.38;;;13.80;99.90;;;;;;4949196;28;20469;-74
2023/06/18 04:18:54;;;;;;;42.10;34.97;;;14.10;99.90;;;;;;4953372;28;20460;-73
2023/06/18 04:21:20;;;;;;;44.55;36.05;;;14.10;99.90;;;;;;4948010;28;20524;-74
2023/06/18 04:23:46;;;;;;;42.00;36.05;;;14.20;99.90;;;;;;4967028;28;20423;-74
2023/06/18 04:26:12;;;;;;;49.40;38.57;;;14.20;99.90;;;;;;4959164;28;20432;-74
2023/06/18 04:28:38;;;;;;;46.33;37.67;;;14.20;99.90;;;;;;4963206;28;20440;-74
2023/06/18 04:31:03;;;;;;;51.00;39.60;;;14.30;99.90;;;;;;4963220;28;20490;-75
2023/06/18 04:33:29;;;;;;;57.35;40.45;;;14.40;99.90;;;;;;4962442;28;20493;-74
2023/06/18 04:35:54;;;;;;;52.03;41.08;;;14.40;99.90;;;;;;4964622;28;20423;-73
2023/06/18 04:38:23;;;;;;;57.67;40.67;;;14.50;99.90;;;;;;4984781;28;20522;-74
2023/06/18 04:40:49;;;;;;;59.22;42.63;;;14.40;99.90;;;;;;5005989;28;20470;-74
2023/06/18 04:43:17;;;;;;;76.07;44.97;;;14.60;99.90;;;;;;4964002;28;20445;-74
2023/06/18 04:45:47;;;;;;;72.82;45.33;;;14.60;99.90;;;;;;4964932;28;20607;-73
2023/06/18 04:48:14;;;;;;;62.10;43.58;;;14.70;99.90;;;;;;4966062;28;20499;-73
2023/06/18 04:50:43;;;;;;;61.20;43.05;;;14.70;99.90;;;;;;4956996;28;20439;-74
2023/06/18 04:53:08;;;;;;;62.33;43.42;;;14.70;99.90;;;;;;4963789;28;20899;-74
2023/06/18 04:55:34;;;;;;;52.30;41.72;;;14.70;99.90;;;;;;4962999;28;20484;-72
2023/06/18 04:58:00;;;;;;;58.83;43.45;;;15.00;99.90;;;;;;4964399;28;20523;-72
2023/06/18 05:00:26;;;;;;;68.57;46.75;;;14.90;99.90;;;;;;4964948;28;20425;-72
2023/06/18 05:02:52;;;;;;;57.97;43.03;;;15.10;99.90;;;;;;4964840;28;20503;-73
2023/06/18 05:05:17;;;;;;;58.28;42.78;;;15.00;99.90;;;;;;4946828;28;20519;-74
2023/06/18 05:07:44;;;;;;;57.25;40.88;;;14.90;99.90;;;;;;4965213;28;20848;-73
2023/06/18 05:10:10;;;;;;;51.92;40.10;;;15.00;99.90;;;;;;4964600;28;20462;-73
2023/06/18 05:12:35;;;;;;;42.27;37.27;;;15.00;99.90;;;;;;4962438;28;20805;-72
2023/06/18 05:15:01;;;;;;;44.57;35.23;;;14.90;99.90;;;;;;4965014;28;20416;-72
2023/06/18 05:17:27;;;;;;;41.20;35.35;;;15.00;99.90;;;;;;4963547;28;20481;-73
2023/06/18 05:19:53;;;;;;;45.88;36.80;;;14.90;99.90;;;;;;4963074;28;20417;-74
2023/06/18 05:22:18;;;;;;;46.05;37.53;;;14.90;99.90;;;;;;4960530;28;20454;-73
2023/06/18 05:24:45;;;;;;;48.13;38.20;;;15.00;99.90;;;;;;4946596;28;20424;-73
2023/06/18 05:27:10;;;;;;;47.70;38.60;;;15.10;99.90;;;;;;4963712;28;20416;-73
2023/06/18 05:29:36;;;;;;;50.90;38.57;;;15.10;99.90;;;;;;4963074;28;21332;-72
2023/06/18 05:32:02;;;;;;;50.53;40.47;;;15.10;99.90;;;;;;4962002;28;20436;-72
2023/06/18 05:34:28;;;;;;;50.42;40.42;;;15.20;99.90;;;;;;4964555;28;20436;-72
2023/06/18 05:36:53;;;;;;;51.90;40.37;;;15.30;99.90;;;;;;4964290;28;20842;-73
2023/06/18 05:39:19;;;;;;;48.63;40.20;;;15.50;99.90;;;;;;4963465;28;20479;-73
2023/06/18 05:41:45;;;;;;;48.42;40.88;;;15.70;99.90;;;;;;4962553;28;20424;-73
2023/06/18 05:44:10;;;;;;;50.63;40.50;;;15.80;99.90;;;;;;4963474;28;20482;-72
2023/06/18 05:46:36;;;;;;;45.67;34.42;;;15.80;99.90;;;;;;4964041;28;20042;-73
2023/06/18 05:49:02;;;;;;;45.80;35.10;;;15.80;99.90;;;;;;4966086;28;20185;-74
2023/06/18 05:51:27;;;;;;;47.58;35.75;;;15.80;99.90;;;;;;4964994;28;20501;-73
2023/06/18 05:53:53;;;;;;;44.45;35.00;;;15.90;99.90;;;;;;4964202;28;20442;-73
2023/06/18 05:56:18;;;;;;;42.70;33.03;;;16.00;99.90;;;;;;4963228;28;20660;-73
2023/06/18 05:58:45;;;;;;;43.22;31.73;;;16.10;99.90;;;;;;4960042;28;20095;-73
2023/06/18 06:01:10;;;;;;;40.67;32.97;;;16.10;99.90;;;;;;4962788;28;20039;-73
2023/06/18 06:03:36;;;;;;;42.90;32.25;;;16.30;99.90;;;;;;4951713;28;20332;-73
2023/06/18 06:06:02;;;;;;;45.17;35.10;;;16.40;99.90;;;;;;4948207;28;20043;-73
2023/06/18 06:08:28;;;;;;;39.17;31.77;;;16.60;99.90;;;;;;4965758;28;20046;-72
2023/06/18 06:10:54;;;;;;;42.50;33.70;;;16.70;99.90;;;;;;4967044;28;20050;-75
2023/06/18 06:13:20;;;;;;;41.45;31.38;;;16.50;99.90;;;;;;4966118;28;20042;-73
2023/06/18 06:15:45;;;;;;;40.63;29.85;;;16.80;99.90;;;;;;4962536;28;20075;-72
2023/06/18 06:18:11;;;;;;;37.33;30.88;;;16.90;99.90;;;;;;4959696;28;20157;-74
2023/06/18 06:20:37;;;;;;;37.25;30.05;;;17.00;99.90;;;;;;4966972;28;20042;-75
2023/06/18 06:23:02;;;;;;;39.42;31.02;;;16.80;99.90;;;;;;4966542;28;20050;-74
2023/06/18 06:25:28;;;;;;;37.80;31.45;;;16.90;99.90;;;;;;4968811;28;20054;-74
2023/06/18 06:27:54;;;;;;;36.33;30.17;;;17.00;99.90;;;;;;4967171;28;20054;-75
2023/06/18 06:30:20;;;;;;;36.28;29.48;;;17.20;99.90;;;;;;4945354;28;20039;-75
2023/06/18 06:32:46;;;;;;;43.95;31.50;;;17.00;99.90;;;;;;4965720;28;20051;-74
2023/06/18 06:35:11;;;;;;;37.33;30.90;;;17.10;99.90;;;;;;4963063;28;20039;-74
2023/06/18 06:37:37;;;;;;;39.20;31.75;;;17.10;99.90;;;;;;4966424;28;20155;-76
2023/06/18 06:40:04;;;;;;;36.03;32.13;;;17.40;99.90;;;;;;4952051;28;20047;-73
2023/06/18 06:42:29;;;;;;;37.55;30.58;;;17.50;99.90;;;;;;4965366;28;20059;-74
2023/06/18 06:44:55;;;;;;;34.88;28.98;;;17.60;99.90;;;;;;4950737;28;20047;-73
2023/06/18 06:47:21;;;;;;;34.28;30.13;;;17.80;99.90;;;;;;4955210;28;20405;-75
2023/06/18 06:49:46;;;;;;;35.97;30.08;;;18.00;99.90;;;;;;4952078;28;20036;-76
2023/06/18 06:52:12;;;;;;;33.92;29.83;;;17.80;99.90;;;;;;4953744;28;20054;-73
2023/06/18 06:54:38;;;;;;;34.80;28.40;;;17.90;99.90;;;;;;4965971;28;21013;-74
2023/06/18 06:57:04;;;;;;;37.05;29.70;;;17.90;99.90;;;;;;4965671;28;20055;-73
2023/06/18 06:59:30;;;;;;;35.03;29.27;;;17.90;99.90;;;;;;4967988;28;20488;-74
2023/06/18 07:01:56;;;;;;;40.95;30.25;;;18.00;99.90;;;;;;4965571;28;20074;-74
2023/06/18 07:04:22;;;;;;;37.85;30.17;;;18.20;99.90;;;;;;4962434;28;20066;-74
2023/06/18 07:06:49;;;;;;;34.80;31.10;;;18.40;99.90;;;;;;4966277;28;20058;-76
2023/06/18 07:09:14;;;;;;;34.67;29.45;;;18.40;99.90;;;;;;4967112;28;20054;-76
2023/06/18 07:11:40;;;;;;;37.53;33.03;;;18.40;99.90;;;;;;4967129;28;20416;-75
2023/06/18 07:14:06;;;;;;;35.42;31.73;;;18.60;99.90;;;;;;4963861;28;20431;-74
2023/06/18 07:16:32;;;;;;;37.53;30.17;;;18.90;99.90;;;;;;4960779;28;20432;-76
2023/06/18 07:18:58;;;;;;;33.83;30.20;;;19.10;99.90;;;;;;4962659;28;20853;-75
2023/06/18 07:21:24;;;;;;;35.05;31.38;;;19.60;99.90;;;;;;4966570;28;20440;-76
2023/06/18 07:23:49;;;;;;;31.23;27.90;;;19.50;99.90;;;;;;4961620;28;21001;-74
2023/06/18 07:26:15;;;;;;;34.60;31.00;;;19.20;99.90;;;;;;4962959;28;20879;-74
2023/06/18 07:28:41;;;;;;;30.63;27.50;;;19.40;99.90;;;;;;4965242;28;20819;-75
2023/06/18 07:31:06;;;;;;;31.15;27.77;;;19.40;99.90;;;;;;4967155;28;20423;-76
2023/06/18 07:33:32;;;;;;;30.67;27.57;;;20.00;99.90;;;;;;4964075;28;20432;-73
2023/06/18 07:35:58;;;;;;;31.97;28.53;;;20.40;99.90;;;;;;4968135;28;20507;-75
2023/06/18 07:38:23;;;;;;;30.77;27.50;;;21.50;99.90;;;;;;4965747;28;20444;-75
2023/06/18 07:40:50;;;;;;;31.50;25.93;;;22.10;99.90;;;;;;4965433;28;20795;-74
2023/06/18 07:43:15;;;;;;;30.75;27.65;;;21.50;99.90;;;;;;4964312;28;20614;-74
2023/06/18 07:45:41;;;;;;;29.27;25.93;;;22.10;99.90;;;;;;4965318;28;21215;-74
2023/06/18 07:48:10;;;;;;;27.15;24.35;;;22.60;99.90;;;;;;4962600;28;20440;-75
2023/06/18 07:50:36;;;;;;;25.88;23.33;;;22.20;99.90;;;;;;4965904;28;21051;-74
2023/06/18 07:53:02;;;;;;;25.67;23.00;;;22.20;99.90;;;;;;4961666;28;20438;-76
2023/06/18 07:55:28;;;;;;;26.38;23.67;;;21.80;99.90;;;;;;4947410;28;20417;-74
2023/06/18 07:57:54;;;;;;;24.23;21.92;;;22.20;99.90;;;;;;4955465;28;20437;-75
2023/06/18 08:00:20;;;;;;;23.33;20.43;;;22.30;99.90;;;;;;4966226;28;20432;-74
2023/06/18 08:02:46;;;;;;;20.90;18.70;;;22.80;99.90;;;;;;4966429;28;20408;-74
2023/06/18 08:05:12;;;;;;;20.80;18.60;;;23.00;99.90;;;;;;4967283;28;20499;-73
2023/06/18 08:07:39;;;;;;;22.55;19.55;;;23.20;99.90;;;;;;4965010;28;20603;-75
2023/06/18 08:10:05;;;;;;;21.55;19.00;;;22.90;99.90;;;;;;4964606;28;20432;-75
2023/06/18 08:12:31;;;;;;;20.77;18.38;;;23.20;99.90;;;;;;4965405;28;20899;-74
2023/06/18 08:14:57;;;;;;;19.50;17.43;;;23.10;99.90;;;;;;4965487;28;20432;-72
2023/06/18 08:17:22;;;;;;;20.25;18.15;;;23.30;99.90;;;;;;4965134;28;20431;-72
2023/06/18 08:19:49;;;;;;;19.30;16.80;;;23.10;99.90;;;;;;4966005;28;20440;-75
2023/06/18 08:22:16;;;;;;;19.95;16.92;;;23.60;99.90;;;;;;4966602;28;20414;-74
2023/06/18 08:24:42;;;;;;;17.73;15.83;;;23.70;99.90;;;;;;4965859;28;20969;-77
2023/06/18 08:27:08;;;;;;;19.40;17.40;;;23.90;99.90;;;;;;4947637;28;20464;-76
2023/06/18 08:29:34;;;;;;;17.60;15.70;;;23.70;99.90;;;;;;4964492;28;20483;-76
2023/06/18 08:32:05;;;;;;;15.52;13.82;;;23.50;99.90;;;;;;4947812;28;20828;-76
2023/06/18 08:34:36;;;;;;;15.65;13.95;;;23.90;99.90;;;;;;4956845;28;20430;-74
2023/06/18 08:37:03;;;;;;;17.30;13.73;;;23.80;99.90;;;;;;4963341;28;20493;-76
2023/06/18 08:39:29;;;;;;;15.45;13.85;;;23.70;99.90;;;;;;4963460;28;20424;-75
2023/06/18 08:41:59;;;;;;;14.98;13.40;;;23.60;99.90;;;;;;4964304;28;20416;-75
2023/06/18 08:44:26;;;;;;;15.15;13.55;;;23.70;99.90;;;;;;4963091;28;20510;-76
2023/06/18 08:47:00;;;;;;;15.18;13.18;;;23.80;99.90;;;;;;4963874;28;20456;-77
2023/06/18 08:49:27;;;;;;;16.13;13.67;;;23.60;99.90;;;;;;4961796;28;20423;-76
2023/06/18 08:51:54;;;;;;;16.03;14.37;;;23.70;99.90;;;;;;4964300;28;20942;-76
2023/06/18 08:54:22;;;;;;;13.70;12.27;;;24.00;99.90;;;;;;4962826;28;20428;-76
2023/06/18 08:56:56;;;;;;;14.52;12.65;;;24.10;99.90;;;;;;4961806;28;20435;-75
2023/06/18 08:59:24;;;;;;;15.00;12.27;;;24.40;99.90;;;;;;4950445;28;20447;-75
2023/06/18 09:01:52;;;;;;;15.23;13.63;;;24.50;99.90;;;;;;4965619;28;20420;-75
2023/06/18 09:04:19;;;;;;;15.60;13.32;;;24.80;99.90;;;;;;4963241;28;20420;-76
2023/06/18 09:06:45;;;;;;;12.07;10.70;;;24.70;99.90;;;;;;4965631;28;20424;-78
2023/06/18 09:09:11;;;;;;;12.57;11.25;;;24.80;99.90;;;;;;4963201;28;20882;-76
2023/06/18 09:11:37;;;;;;;11.45;10.27;;;24.70;99.90;;;;;;4963836;28;20423;-74
2023/06/18 09:14:02;;;;;;;13.80;11.85;;;24.90;99.90;;;;;;4961107;28;20806;-75
2023/06/18 09:16:28;;;;;;;12.87;10.20;;;25.00;99.90;;;;;;4961467;28;20751;-74
2023/06/18 09:18:54;;;;;;;11.77;9.65;;;24.90;99.90;;;;;;4964172;28;20440;-75
2023/06/18 09:21:41;;;;;;;11.55;10.35;;;24.90;99.90;;;;;;4957876;28;21185;-75
2023/06/18 09:24:17;;;;;;;10.38;9.32;;;25.10;99.90;;;;;;4954913;28;20439;-74
2023/06/18 09:26:43;;;;;;;11.98;10.00;;;25.30;99.90;;;;;;4962523;28;20416;-75
2023/06/18 09:29:10;;;;;;;10.82;9.75;;;25.10;99.90;;;;;;4962452;28;21003;-75
2023/06/18 09:31:37;;;;;;;14.10;9.25;;;25.20;99.90;;;;;;4963681;28;20431;-76
2023/06/18 09:34:18;;;;;;;9.43;8.00;;;25.00;99.90;;;;;;4961629;28;20429;-75
2023/06/18 09:36:46;;;;;;;12.20;9.18;;;25.00;99.90;;;;;;4957265;28;20431;-75
2023/06/18 09:39:19;;;;;;;10.25;9.25;;;25.10;99.90;;;;;;4958076;28;20415;-75
2023/06/18 09:41:49;;;;;;;9.50;8.55;;;25.00;99.90;;;;;;4962969;28;20430;-75
2023/06/18 09:44:16;;;;;;;12.40;9.35;;;25.50;99.90;;;;;;4965290;28;20430;-76
2023/06/18 09:46:56;;;;;;;11.97;8.67;;;25.90;99.90;;;;;;4967146;28;20416;-75
2023/06/18 09:49:22;;;;;;;9.40;7.05;;;26.10;99.90;;;;;;4964841;28;20440;-74
2023/06/18 09:51:52;;;;;;;8.60;7.60;;;25.90;99.90;;;;;;4965930;28;20440;-75
2023/06/18 09:54:19;;;;;;;8.70;7.90;;;25.90;99.90;;;;;;4964705;28;20469;-75
2023/06/18 09:56:59;;;;;;;7.75;7.03;;;26.00;99.90;;;;;;4964264;28;20826;-74
2023/06/18 09:59:25;;;;;;;8.57;7.22;;;26.10;99.90;;;;;;4954264;28;20428;-75
2023/06/18 10:01:51;;;;;;;10.27;7.45;;;25.80;99.90;;;;;;4967654;28;20500;-75
2023/06/18 10:04:17;;;;;;;8.10;7.30;;;26.10;99.90;;;;;;4963406;28;20527;-77
2023/06/18 10:07:16;;;;;;;7.88;6.85;;;26.20;99.90;;;;;;4967584;28;20434;-75
2023/06/18 10:09:44;;;;;;;11.00;6.50;;;26.30;99.90;;;;;;4967483;28;20802;-77
2023/06/18 10:12:13;;;;;;;7.47;6.65;;;26.20;99.90;;;;;;4966337;28;20408;-76
2023/06/18 10:14:41;;;;;;;7.70;6.78;;;26.00;99.90;;;;;;4966427;28;20420;-76
2023/06/18 10:17:20;;;;;;;7.50;6.50;;;26.10;99.90;;;;;;4966038;28;20512;-75
2023/06/18 10:20:04;;;;;;;8.60;7.07;;;26.10;99.90;;;;;;4967420;28;20528;-76
2023/06/18 10:22:36;;;;;;;8.07;6.55;;;26.40;99.90;;;;;;4948447;28;20406;-74
2023/06/18 10:25:06;;;;;;;7.45;6.72;;;26.30;99.90;;;;;;4964354;28;20440;-74
2023/06/18 10:27:34;;;;;;;8.77;7.22;;;26.40;99.90;;;;;;4967956;28;20427;-74
2023/06/18 10:30:00;;;;;;;8.00;6.68;;;26.30;99.90;;;;;;4956061;28;20472;-75
2023/06/18 10:32:27;;;;;;;7.30;6.43;;;26.30;99.90;;;;;;4967065;28;20431;-75
2023/06/18 10:34:54;;;;;;;8.85;7.22;;;26.50;99.90;;;;;;4967566;28;20435;-74
2023/06/18 10:37:21;;;;;;;8.37;6.93;;;26.50;99.90;;;;;;4965611;28;20432;-74
2023/06/18 10:39:47;;;;;;;8.55;7.10;;;26.90;99.90;;;;;;4967343;28;20424;-75
2023/06/18 10:42:15;;;;;;;8.65;6.55;;;27.20;99.90;;;;;;4957945;28;20447;-75
2023/06/18 10:44:54;;;;;;;8.38;6.93;;;27.30;99.90;;;;;;4966242;28;20440;-76
2023/06/18 10:47:22;;;;;;;9.63;7.28;;;27.00;99.90;;;;;;4951731;28;20442;-73
2023/06/18 10:50:00;;;;;;;8.48;7.57;;;27.10;99.90;;;;;;4964965;28;20428;-74
2023/06/18 10:52:27;;;;;;;6.38;5.78;;;27.30;99.90;;;;;;4965578;28;20436;-74
2023/06/18 10:55:05;;;;;;;6.87;6.27;;;27.00;99.90;;;;;;4966016;28;20798;-76
2023/06/18 10:57:30;;;;;;;7.38;6.45;;;27.10;99.90;;;;;;4964012;28;20470;-76
2023/06/18 10:59:56;;;;;;;8.88;6.80;;;27.00;99.90;;;;;;4959024;28;20424;-74
2023/06/18 11:02:34;;;;;;;7.57;6.82;;;27.20;99.90;;;;;;4965425;28;20436;-73
2023/06/18 11:05:00;;;;;;;7.40;5.97;;;27.00;99.90;;;;;;4960263;28;20951;-74
2023/06/18 11:07:27;;;;;;;9.63;6.35;;;26.90;99.90;;;;;;4965831;28;20437;-74
2023/06/18 11:09:58;;;;;;;7.03;6.32;;;27.10;99.90;;;;;;4967261;28;20520;-75
2023/06/18 11:12:28;;;;;;;10.38;6.88;;;27.00;99.90;;;;;;4963818;28;20496;-75
2023/06/18 11:15:13;;;;;;;7.40;6.47;;;26.90;99.90;;;;;;4965109;28;20863;-75
2023/06/18 11:17:40;;;;;;;9.52;6.65;;;27.00;99.90;;;;;;4966872;28;20440;-75
2023/06/18 11:20:06;;;;;;;7.18;6.57;;;27.20;99.90;;;;;;4965841;28;20914;-74
2023/06/18 11:22:33;;;;;;;7.55;6.82;;;27.20;99.90;;;;;;4965291;28;20447;-75
2023/06/18 11:25:00;;;;;;;7.55;6.85;;;27.10;99.90;;;;;;4963433;28;20484;-76
2023/06/18 11:27:30;;;;;;;7.55;6.78;;;27.00;99.90;;;;;;4962434;28;20435;-74
2023/06/18 11:29:59;;;;;;;10.07;7.22;;;26.90;99.90;;;;;;4965190;28;20413;-76
2023/06/18 11:32:27;;;;;;;8.03;7.33;;;27.10;99.90;;;;;;4964101;28;20510;-75
2023/06/18 11:34:54;;;;;;;7.93;7.13;;;26.90;99.90;;;;;;4965475;28;20433;-75
2023/06/18 11:37:21;;;;;;;7.72;6.93;;;27.10;99.90;;;;;;4965114;28;20519;-74
2023/06/18 11:39:47;;;;;;;15.43;8.13;;;26.80;99.90;;;;;;4966097;28;20413;-76
2023/06/18 11:42:14;;;;;;;8.57;7.57;;;26.90;99.90;;;;;;4963029;28;20427;-73
2023/06/18 11:44:51;;;;;;;9.07;7.23;;;26.90;99.90;;;;;;4962325;28;20436;-76
2023/06/18 11:47:18;;;;;;;9.90;6.90;;;26.80;99.90;;;;;;4965269;28;20798;-74
2023/06/18 11:49:45;;;;;;;8.65;7.05;;;27.00;99.90;;;;;;4949566;28;20625;-74
2023/06/18 11:52:18;;;;;;;9.85;7.65;;;27.30;99.90;;;;;;4964943;28;20428;-75
2023/06/18 11:54:45;;;;;;;7.63;6.78;;;27.60;99.90;;;;;;4966296;28;20426;-74
2023/06/18 11:57:12;;;;;;;7.88;6.93;;;27.80;99.90;;;;;;4964356;28;20457;-75
2023/06/18 11:59:41;;;;;;;7.95;6.68;;;27.80;99.90;;;;;;4961348;28;20880;-75
2023/06/18 12:02:20;;;;;;;6.80;6.20;;;28.20;99.90;;;;;;4964212;28;20430;-73
2023/06/18 12:04:46;;;;;;;9.88;6.45;;;28.10;99.70;;;;;;4964042;28;20447;-74
2023/06/18 12:07:31;;;;;;;7.30;5.95;;;28.10;97.00;;;;;;4954067;28;20428;-75
2023/06/18 12:09:58;;;;;;;7.05;6.45;;;27.80;98.80;;;;;;4964022;28;20431;-74
2023/06/18 12:12:46;;;;;;;9.65;6.80;;;27.90;97.40;;;;;;4962563;28;20436;-74
2023/06/18 12:15:17;;;;;;;8.13;6.60;;;28.50;98.20;;;;;;4963408;28;20424;-74
2023/06/18 12:18:03;;;;;;;6.80;6.03;;;28.50;97.20;;;;;;4963752;28;20447;-75
2023/06/18 12:20:29;;;;;;;9.40;6.63;;;28.60;97.30;;;;;;4964415;28;20909;-74
2023/06/18 12:23:00;;;;;;;12.30;7.10;;;28.50;96.00;;;;;;4962724;28;20425;-75
2023/06/18 12:25:28;;;;;;;7.13;6.38;;;28.50;98.20;;;;;;4945980;28;20438;-76
2023/06/18 12:27:55;;;;;;;8.10;6.97;;;27.90;99.90;;;;;;4957201;28;20829;-75
2023/06/18 12:30:40;;;;;;;8.98;7.45;;;27.70;99.90;;;;;;4965613;28;20423;-72
2023/06/18 12:33:12;;;;;;;10.32;6.65;;;28.10;98.60;;;;;;4964238;28;20450;-73